KAPC/APC METAR and TAF weather

Enter ICAO airport designator
Station Type Date Time Source
KAPC METAR 2019/12/07 09:54 UTC NOAA

KAPC 070954Z AUTO 15005KT 5SM -RA BR OVC018 13/12 A2995 RMK AO2 RAB0855E0856B15 SLP132 P0005 T01280122


Station Type Date Time Source
KAPC Decoded METAR 2019/12/07 09:54 UTC NOAA

NAPA COUNTY AIRPORT, CA, United States (KAPC) 38-12N 122-17W 13M
Dec 07, 2019 - 04:54 AM EST / 2019.12.07 0954 UTC
Wind: from the SSE (150 degrees) at 6 MPH (5 KT):0
Visibility: 5 mile(s):0
Sky conditions: overcast
Weather: light rain; mist
Precipitation last hour: 0.05 inches
Temperature: 55.0 F (12.8 C)
Dew Point: 54.0 F (12.2 C)
Relative Humidity: 96%
Pressure (altimeter): 29.95 in. Hg (1014 hPa)
ob: KAPC 070954Z AUTO 15005KT 5SM -RA BR OVC018 13/12 A2995 RMK AO2 RAB0855E0856B15 SLP132 P0005 T01280122
cycle: 10

Station Type Date Time Source
KAPC TAF 2016/02/08 18:39 UTC NOAA

TAF KAPC 081738Z 0818/0918 08008KT P6SM SKC
FM081900 09012KT P6SM SKC
FM090000 07007KT P6SM SKC
FM090600 04004KT P6SM SKC

Example: see airport list